Trimble, Colorado
Current Conditions -  °F | °C
As of 6:53 AM on Thursday 30 Oct 2014 (Local Time) from KDRO Reporting Station
Clear Clear  
Wind Chill: 18°   Ceiling: Unl
Heat Index: 25°   Visibility: 10mi
Dew Point: 20°   Wind: 6mph
Humidity: 81%   Direction: 50°NE
Pressure: 30.35"   Gusts: NA
Location:  37.39°N, 107.85°W
Report Text: KDRO 301253Z AUTO 05005KT 10SM CLR M04/M07 A3035 RMK AO2 SLP277 T10391067
Loading
Personal Weather Stations






























Interactive Weather Map
Tropical Storm Tracking
New forecast layout! Learn more

10-Day Weather Forecast

Advertisements
Track Severe Weather on mobile